Time;durP1;ratioP1;P1;durP2;ratioP2;P2;SDS_P1;SDS_P2;PMS_P1;PMS_P2;Temp;Humidity;BMP_temperature;BMP_pressure;BME280_temperature;BME280_humidity;BME280_pressure;Samples;Min_cycle;Max_cycle;Signal;HPM_P1;HPM_P2
2023/06/18 00:01:31;;;;;;;;;;;21.70;58.20;;;;;;4987896;28;20412;-68
2023/06/18 00:03:56;;;;;;;;;;;21.60;58.10;;;;;;4987812;28;19924;-69
2023/06/18 00:06:23;;;;;;;;;;;21.60;58.20;;;;;;4987316;28;19920;-68
2023/06/18 00:08:48;;;;;;;;;;;21.60;58.20;;;;;;4987714;28;19918;-69
2023/06/18 00:11:14;;;;;;;;;;;21.50;58.20;;;;;;4987499;28;19913;-69
2023/06/18 00:13:39;;;;;;;;;;;21.50;58.30;;;;;;4986890;28;19962;-69
2023/06/18 00:16:05;;;;;;;;;;;21.50;58.40;;;;;;4987191;28;19914;-69
2023/06/18 00:18:31;;;;;;;;;;;21.50;58.50;;;;;;4986298;28;20661;-69
2023/06/18 00:20:59;;;;;;;;;;;21.40;58.60;;;;;;4991449;28;19914;-68
2023/06/18 00:23:24;;;;;;;;;;;21.40;58.50;;;;;;4969855;28;20355;-69
2023/06/18 00:25:50;;;;;;;;;;;21.40;58.60;;;;;;4968008;28;19921;-69
2023/06/18 00:28:15;;;;;;;;;;;21.40;58.60;;;;;;4966655;28;19918;-69
2023/06/18 00:30:41;;;;;;;;;;;21.30;58.70;;;;;;4968001;28;19914;-69
2023/06/18 00:33:06;;;;;;;;;;;21.20;58.80;;;;;;4967819;28;20656;-69
2023/06/18 00:35:32;;;;;;;;;;;21.30;58.90;;;;;;4967468;28;19918;-69
2023/06/18 00:37:59;;;;;;;;;;;21.20;58.90;;;;;;4984383;28;19993;-69
2023/06/18 00:40:24;;;;;;;;;;;21.20;58.90;;;;;;4987621;28;20008;-69
2023/06/18 00:42:52;;;;;;;;;;;21.20;59.00;;;;;;4987406;28;20025;-69
2023/06/18 00:45:17;;;;;;;;;;;21.10;59.10;;;;;;4987117;28;19914;-69
2023/06/18 00:47:44;;;;;;;;;;;21.10;59.00;;;;;;4986809;28;19924;-69
2023/06/18 00:50:14;;;;;;;;;;;21.10;59.20;;;;;;4987387;28;20002;-69
2023/06/18 00:52:44;;;;;;;;;;;21.10;59.20;;;;;;4988461;28;20355;-69
2023/06/18 00:55:10;;;;;;;;;;;21.10;59.30;;;;;;4987232;28;19917;-69
2023/06/18 00:57:37;;;;;;;;;;;21.00;59.30;;;;;;4985422;28;20384;-69
2023/06/18 01:00:07;;;;;;;;;;;21.00;59.20;;;;;;4987147;28;19952;-69
2023/06/18 01:02:34;;;;;;;;;;;21.00;59.40;;;;;;4986747;28;19910;-69
2023/06/18 01:05:00;;;;;;;;;;;20.90;59.40;;;;;;4986819;28;19917;-68
2023/06/18 01:07:26;;;;;;;;;;;20.90;59.50;;;;;;4986292;28;19926;-69
2023/06/18 01:09:56;;;;;;;;;;;20.80;59.50;;;;;;4986921;28;19914;-70
2023/06/18 01:12:22;;;;;;;;;;;20.80;59.70;;;;;;5001168;28;20544;-68
2023/06/18 01:14:50;;;;;;;;;;;20.80;59.80;;;;;;4986865;28;19918;-69
2023/06/18 01:17:18;;;;;;;;;;;20.70;59.60;;;;;;4986194;28;20526;-69
2023/06/18 01:19:47;;;;;;;;;;;20.70;59.80;;;;;;4986925;28;19979;-68
2023/06/18 01:22:26;;;;;;;;;;;20.70;59.80;;;;;;4989353;28;19979;-68
2023/06/18 01:24:54;;;;;;;;;;;20.70;60.10;;;;;;4986084;28;20430;-69
2023/06/18 01:27:24;;;;;;;;;;;20.70;60.00;;;;;;4985986;28;19918;-69
2023/06/18 01:29:53;;;;;;;;;;;20.60;60.00;;;;;;4985136;28;20281;-69
2023/06/18 01:32:19;;;;;;;;;;;20.60;60.20;;;;;;4984831;28;20379;-69
2023/06/18 01:34:45;;;;;;;;;;;20.60;60.30;;;;;;4986509;28;19914;-69
2023/06/18 01:37:17;;;;;;;;;;;20.50;60.30;;;;;;4984616;28;20374;-69
2023/06/18 01:39:51;;;;;;;;;;;20.50;60.40;;;;;;4985258;28;19945;-69
2023/06/18 01:42:18;;;;;;;;;;;20.50;60.60;;;;;;5028047;28;19920;-69
2023/06/18 01:44:44;;;;;;;;;;;20.50;60.50;;;;;;5068308;28;19908;-69
2023/06/18 01:47:12;;;;;;;;;;;20.40;60.70;;;;;;5069968;28;19917;-70
2023/06/18 01:49:38;;;;;;;;;;;20.40;60.70;;;;;;5088644;28;19916;-69
2023/06/18 01:52:03;;;;;;;;;;;20.40;61.10;;;;;;5011640;28;19910;-69
2023/06/18 01:54:29;;;;;;;;;;;20.30;61.30;;;;;;4986342;28;20351;-69
2023/06/18 01:56:55;;;;;;;;;;;20.30;61.40;;;;;;4984994;28;19910;-69
2023/06/18 01:59:21;;;;;;;;;;;20.30;60.80;;;;;;4986674;28;20527;-69
2023/06/18 02:01:46;;;;;;;;;;;20.30;60.90;;;;;;4986386;28;19918;-69
2023/06/18 02:04:12;;;;;;;;;;;20.20;61.50;;;;;;4986318;28;19914;-69
2023/06/18 02:06:37;;;;;;;;;;;20.20;61.30;;;;;;4985819;28;20005;-69
2023/06/18 02:09:03;;;;;;;;;;;20.20;61.40;;;;;;4986259;28;19953;-69
2023/06/18 02:11:28;;;;;;;;;;;20.10;61.80;;;;;;4986298;28;19916;-69
2023/06/18 02:13:54;;;;;;;;;;;20.10;61.90;;;;;;4986533;28;19911;-69
2023/06/18 02:16:19;;;;;;;;;;;20.10;61.70;;;;;;4986048;28;19960;-69
2023/06/18 02:18:45;;;;;;;;;;;20.10;61.90;;;;;;4986292;28;20620;-69
2023/06/18 02:21:11;;;;;;;;;;;20.10;61.40;;;;;;4989434;28;19913;-69
2023/06/18 02:23:36;;;;;;;;;;;20.10;62.00;;;;;;5006301;28;19927;-69
2023/06/18 02:26:03;;;;;;;;;;;20.00;62.10;;;;;;5087939;28;20321;-69
2023/06/18 02:28:29;;;;;;;;;;;20.00;62.20;;;;;;5088377;28;19938;-69
2023/06/18 02:30:57;;;;;;;;;;;20.00;62.10;;;;;;5088495;28;19916;-69
2023/06/18 02:33:23;;;;;;;;;;;20.00;62.20;;;;;;5088544;28;20010;-69
2023/06/18 02:35:48;;;;;;;;;;;19.90;62.90;;;;;;5088736;28;19930;-69
2023/06/18 02:38:14;;;;;;;;;;;19.90;62.30;;;;;;5091987;28;20412;-69
2023/06/18 02:40:40;;;;;;;;;;;19.90;62.40;;;;;;5091966;28;19972;-69
2023/06/18 02:43:05;;;;;;;;;;;19.90;62.20;;;;;;5091825;28;20517;-69
2023/06/18 02:45:31;;;;;;;;;;;19.90;62.40;;;;;;5086311;28;19935;-69
2023/06/18 02:47:57;;;;;;;;;;;19.80;62.60;;;;;;4988994;28;19943;-69
2023/06/18 02:50:22;;;;;;;;;;;19.80;62.40;;;;;;4990888;28;19914;-70
2023/06/18 02:52:48;;;;;;;;;;;19.80;62.70;;;;;;4989314;28;19998;-70
2023/06/18 02:55:14;;;;;;;;;;;19.80;62.80;;;;;;4989098;28;20346;-69
2023/06/18 02:57:39;;;;;;;;;;;19.70;62.50;;;;;;4988779;28;19918;-69
2023/06/18 03:00:10;;;;;;;;;;;19.70;62.60;;;;;;4989088;28;19941;-69
2023/06/18 03:02:36;;;;;;;;;;;19.80;63.00;;;;;;4988987;28;19910;-69
2023/06/18 03:05:01;;;;;;;;;;;19.70;62.90;;;;;;4988930;28;20587;-69
2023/06/18 03:07:27;;;;;;;;;;;19.70;63.00;;;;;;4988572;28;20366;-69
2023/06/18 03:09:53;;;;;;;;;;;19.70;63.30;;;;;;4988877;28;20312;-69
2023/06/18 03:12:18;;;;;;;;;;;19.60;63.10;;;;;;4988729;28;20315;-69
2023/06/18 03:14:44;;;;;;;;;;;19.60;63.00;;;;;;4988919;28;19909;-69
2023/06/18 03:17:10;;;;;;;;;;;19.60;62.60;;;;;;5002922;28;20032;-69
2023/06/18 03:19:35;;;;;;;;;;;19.60;62.80;;;;;;4987518;28;19913;-69
2023/06/18 03:22:02;;;;;;;;;;;19.60;63.00;;;;;;4988217;28;19926;-69
2023/06/18 03:24:27;;;;;;;;;;;19.60;63.00;;;;;;4988341;28;19918;-69
2023/06/18 03:26:53;;;;;;;;;;;19.60;62.80;;;;;;4988222;28;19937;-69
2023/06/18 03:29:18;;;;;;;;;;;19.60;63.00;;;;;;4988679;28;19967;-69
2023/06/18 03:31:46;;;;;;;;;;;19.50;63.20;;;;;;4987357;28;19921;-69
2023/06/18 03:34:12;;;;;;;;;;;19.50;63.40;;;;;;4988621;28;20415;-69
2023/06/18 03:36:41;;;;;;;;;;;19.50;63.30;;;;;;4988121;28;19918;-69
2023/06/18 03:39:07;;;;;;;;;;;19.50;63.10;;;;;;4988452;28;19921;-69
2023/06/18 03:41:32;;;;;;;;;;;19.40;62.90;;;;;;4988226;28;19913;-69
2023/06/18 03:43:58;;;;;;;;;;;19.50;63.20;;;;;;5035213;28;20003;-69
2023/06/18 03:46:23;;;;;;;;;;;19.40;62.90;;;;;;4994762;28;19914;-69
2023/06/18 03:48:49;;;;;;;;;;;19.40;63.30;;;;;;4967763;28;19918;-69
2023/06/18 03:51:15;;;;;;;;;;;19.40;63.60;;;;;;4981013;28;19921;-69
2023/06/18 03:53:40;;;;;;;;;;;19.40;63.30;;;;;;4988370;28;19909;-69
2023/06/18 03:56:06;;;;;;;;;;;19.40;63.50;;;;;;4987826;28;19914;-69
2023/06/18 03:58:32;;;;;;;;;;;19.40;63.10;;;;;;4988327;28;19914;-69
2023/06/18 04:00:57;;;;;;;;;;;19.40;63.20;;;;;;4986765;28;19981;-69
2023/06/18 04:03:23;;;;;;;;;;;19.40;63.20;;;;;;4988099;28;19914;-69
2023/06/18 04:05:49;;;;;;;;;;;19.30;63.20;;;;;;4987636;28;19910;-69
2023/06/18 04:08:16;;;;;;;;;;;19.30;63.10;;;;;;4987914;28;19940;-69
2023/06/18 04:10:43;;;;;;;;;;;19.30;63.30;;;;;;4988029;28;19918;-69
2023/06/18 04:13:13;;;;;;;;;;;19.30;63.70;;;;;;4987815;28;20004;-69
2023/06/18 04:15:38;;;;;;;;;;;19.30;63.80;;;;;;4986052;28;20270;-69
2023/06/18 04:18:04;;;;;;;;;;;19.30;63.70;;;;;;4987706;28;19913;-69
2023/06/18 04:20:29;;;;;;;;;;;19.30;63.40;;;;;;4990453;28;20004;-69
2023/06/18 04:22:55;;;;;;;;;;;19.20;63.50;;;;;;4986549;28;19921;-69
2023/06/18 04:25:20;;;;;;;;;;;19.20;63.50;;;;;;4987472;28;20553;-69
2023/06/18 04:27:46;;;;;;;;;;;19.30;63.70;;;;;;4986116;28;19925;-69
2023/06/18 04:30:11;;;;;;;;;;;19.20;63.40;;;;;;4987754;28;19921;-69
2023/06/18 04:32:37;;;;;;;;;;;19.20;63.50;;;;;;4987424;28;19917;-69
2023/06/18 04:35:02;;;;;;;;;;;19.20;63.60;;;;;;4987512;28;20260;-69
2023/06/18 04:37:28;;;;;;;;;;;19.20;63.70;;;;;;4987282;28;19960;-69
2023/06/18 04:39:54;;;;;;;;;;;19.20;63.90;;;;;;4986073;28;20609;-69
2023/06/18 04:42:19;;;;;;;;;;;19.20;63.60;;;;;;4987258;28;19964;-69
2023/06/18 04:44:45;;;;;;;;;;;19.20;63.90;;;;;;4987436;28;19920;-69
2023/06/18 04:47:10;;;;;;;;;;;19.20;63.90;;;;;;4986834;28;19934;-69
2023/06/18 04:49:36;;;;;;;;;;;19.20;64.00;;;;;;4987493;28;19913;-69
2023/06/18 04:52:01;;;;;;;;;;;19.20;63.70;;;;;;4990915;28;19918;-69
2023/06/18 04:54:27;;;;;;;;;;;19.20;63.80;;;;;;4987341;28;19921;-69
2023/06/18 04:56:52;;;;;;;;;;;19.20;63.90;;;;;;4987128;28;20390;-69
2023/06/18 04:59:19;;;;;;;;;;;19.20;63.90;;;;;;4986895;28;19913;-69
2023/06/18 05:01:44;;;;;;;;;;;19.20;63.80;;;;;;4987089;28;19925;-69
2023/06/18 05:04:10;;;;;;;;;;;19.20;63.90;;;;;;4987276;28;19914;-69
2023/06/18 05:06:35;;;;;;;;;;;19.20;63.90;;;;;;4986912;28;19914;-69
2023/06/18 05:09:01;;;;;;;;;;;19.20;64.00;;;;;;4987212;28;20291;-69
2023/06/18 05:11:26;;;;;;;;;;;19.20;63.90;;;;;;4986964;28;20724;-69
2023/06/18 05:13:52;;;;;;;;;;;19.20;63.90;;;;;;4987187;28;20414;-69
2023/06/18 05:16:17;;;;;;;;;;;19.20;64.00;;;;;;4985359;28;19944;-69
2023/06/18 05:18:43;;;;;;;;;;;19.20;64.00;;;;;;4999494;28;19917;-69
2023/06/18 05:21:08;;;;;;;;;;;19.20;64.10;;;;;;4985320;28;20444;-69
2023/06/18 05:23:34;;;;;;;;;;;19.30;64.10;;;;;;4981778;28;19925;-69
2023/06/18 05:26:00;;;;;;;;;;;19.30;63.80;;;;;;4985132;28;19916;-69
2023/06/18 05:28:25;;;;;;;;;;;19.30;64.00;;;;;;4986855;28;19929;-69
2023/06/18 05:30:51;;;;;;;;;;;19.30;64.00;;;;;;4985424;28;19914;-69
2023/06/18 05:33:16;;;;;;;;;;;19.30;64.00;;;;;;4986913;28;19920;-69
2023/06/18 05:35:42;;;;;;;;;;;19.30;64.10;;;;;;4986443;28;19945;-69
2023/06/18 05:38:07;;;;;;;;;;;19.40;64.10;;;;;;4994103;28;20283;-68
2023/06/18 05:40:33;;;;;;;;;;;19.40;64.10;;;;;;5004888;28;19914;-68
2023/06/18 05:42:58;;;;;;;;;;;19.40;64.10;;;;;;5006053;28;19966;-69
2023/06/18 05:45:24;;;;;;;;;;;19.40;64.10;;;;;;5005764;28;19914;-69
2023/06/18 05:47:49;;;;;;;;;;;19.40;64.10;;;;;;4979834;28;19927;-69
2023/06/18 05:50:15;;;;;;;;;;;19.50;64.30;;;;;;5085595;28;19918;-69
2023/06/18 05:52:40;;;;;;;;;;;19.50;64.20;;;;;;4989050;28;20009;-68
2023/06/18 05:55:08;;;;;;;;;;;19.60;64.20;;;;;;4986320;28;19918;-68
2023/06/18 05:57:34;;;;;;;;;;;19.50;64.10;;;;;;4985911;28;20363;-69
2023/06/18 06:00:00;;;;;;;;;;;19.60;64.30;;;;;;4986381;28;19917;-68
2023/06/18 06:02:25;;;;;;;;;;;19.60;64.20;;;;;;4986335;28;19941;-68
2023/06/18 06:04:51;;;;;;;;;;;19.60;64.40;;;;;;4985651;28;19921;-69
2023/06/18 06:07:16;;;;;;;;;;;19.60;64.90;;;;;;4985859;28;19918;-69
2023/06/18 06:09:42;;;;;;;;;;;19.60;64.30;;;;;;4986102;28;19937;-68
2023/06/18 06:12:08;;;;;;;;;;;19.70;64.20;;;;;;4988530;28;20004;-68
2023/06/18 06:14:33;;;;;;;;;;;19.70;64.10;;;;;;4989706;28;19910;-68
2023/06/18 06:16:59;;;;;;;;;;;19.70;64.10;;;;;;4989397;28;19914;-68
2023/06/18 06:19:24;;;;;;;;;;;19.70;64.10;;;;;;4988252;28;19921;-68
2023/06/18 06:21:50;;;;;;;;;;;19.80;64.10;;;;;;4992554;28;19921;-68
2023/06/18 06:24:16;;;;;;;;;;;19.80;64.10;;;;;;4987953;28;19913;-69
2023/06/18 06:26:41;;;;;;;;;;;19.80;63.90;;;;;;4987951;28;19914;-68
2023/06/18 06:29:07;;;;;;;;;;;19.90;64.00;;;;;;4988049;28;20294;-68
2023/06/18 06:31:33;;;;;;;;;;;19.90;63.80;;;;;;4989544;28;19914;-68
2023/06/18 06:33:59;;;;;;;;;;;19.90;63.80;;;;;;4989488;28;19943;-69
2023/06/18 06:36:25;;;;;;;;;;;19.90;63.70;;;;;;4989247;28;19910;-69
2023/06/18 06:38:50;;;;;;;;;;;19.90;63.70;;;;;;4989529;28;19914;-68
2023/06/18 06:41:16;;;;;;;;;;;20.00;63.70;;;;;;4989188;28;19917;-69
2023/06/18 06:43:41;;;;;;;;;;;20.00;63.60;;;;;;4989300;28;19920;-69
2023/06/18 06:46:08;;;;;;;;;;;20.00;63.70;;;;;;4987679;28;19918;-68
2023/06/18 06:48:33;;;;;;;;;;;20.00;63.50;;;;;;4989126;28;19921;-69
2023/06/18 06:50:59;;;;;;;;;;;20.00;63.40;;;;;;4992901;28;19910;-69
2023/06/18 06:53:24;;;;;;;;;;;20.10;63.40;;;;;;4989086;28;19954;-69
2023/06/18 06:55:50;;;;;;;;;;;20.10;63.30;;;;;;4988916;28;20008;-69
2023/06/18 06:58:15;;;;;;;;;;;20.10;63.20;;;;;;4988871;28;19918;-69
2023/06/18 07:00:41;;;;;;;;;;;20.10;63.10;;;;;;4989067;28;19916;-69
2023/06/18 07:03:06;;;;;;;;;;;20.20;63.00;;;;;;4989252;28;19943;-68
2023/06/18 07:05:32;;;;;;;;;;;20.30;63.00;;;;;;4988853;28;19921;-68
2023/06/18 07:07:57;;;;;;;;;;;20.30;63.30;;;;;;5069128;28;19923;-69
2023/06/18 07:10:23;;;;;;;;;;;20.30;62.80;;;;;;5030295;28;19914;-69
2023/06/18 07:12:48;;;;;;;;;;;20.30;62.80;;;;;;4988204;28;20392;-68
2023/06/18 07:15:14;;;;;;;;;;;20.40;62.70;;;;;;4988797;28;20271;-68
2023/06/18 07:17:39;;;;;;;;;;;20.50;62.70;;;;;;4988464;28;19955;-69
2023/06/18 07:20:05;;;;;;;;;;;20.50;62.50;;;;;;4987282;28;20290;-69
2023/06/18 07:22:31;;;;;;;;;;;20.50;62.40;;;;;;4986789;28;20039;-69
2023/06/18 07:24:58;;;;;;;;;;;20.50;62.50;;;;;;4988300;28;20053;-69
2023/06/18 07:27:24;;;;;;;;;;;20.60;62.30;;;;;;4987816;28;19913;-69
2023/06/18 07:29:50;;;;;;;;;;;20.60;62.20;;;;;;4988390;28;19955;-69
2023/06/18 07:32:16;;;;;;;;;;;20.60;62.50;;;;;;4988382;28;20615;-68
2023/06/18 07:34:42;;;;;;;;;;;20.70;62.20;;;;;;4988409;28;19913;-68
2023/06/18 07:37:07;;;;;;;;;;;20.70;62.20;;;;;;4987927;28;19918;-69
2023/06/18 07:39:33;;;;;;;;;;;20.80;61.90;;;;;;4988370;28;19937;-68
2023/06/18 07:41:58;;;;;;;;;;;20.80;62.10;;;;;;4988253;28;19932;-68
2023/06/18 07:44:23;;;;;;;;;;;20.90;62.00;;;;;;4988279;28;19913;-68
2023/06/18 07:46:50;;;;;;;;;;;20.90;61.80;;;;;;5005609;28;20016;-69
2023/06/18 07:49:16;;;;;;;;;;;21.00;62.10;;;;;;5006472;28;19953;-68
2023/06/18 07:51:43;;;;;;;;;;;21.00;61.80;;;;;;4997577;28;19914;-68
2023/06/18 07:54:08;;;;;;;;;;;21.00;61.90;;;;;;4988335;28;20008;-68
2023/06/18 07:56:34;;;;;;;;;;;21.10;61.80;;;;;;4987821;28;20000;-68
2023/06/18 07:58:59;;;;;;;;;;;21.10;61.60;;;;;;4987699;28;19914;-68
2023/06/18 08:01:26;;;;;;;;;;;21.20;61.70;;;;;;4987569;28;19985;-68
2023/06/18 08:03:51;;;;;;;;;;;21.20;61.70;;;;;;4987301;28;20496;-68
2023/06/18 08:06:17;;;;;;;;;;;21.20;61.60;;;;;;4986895;28;20012;-68
2023/06/18 08:08:42;;;;;;;;;;;21.30;61.70;;;;;;4987392;28;19940;-68
2023/06/18 08:11:08;;;;;;;;;;;21.30;61.50;;;;;;4987190;28;19918;-68
2023/06/18 08:13:33;;;;;;;;;;;21.40;61.50;;;;;;4987136;28;20005;-68
2023/06/18 08:16:00;;;;;;;;;;;21.40;61.60;;;;;;4986737;28;19992;-69
2023/06/18 08:18:25;;;;;;;;;;;21.50;61.40;;;;;;4987126;28;19917;-68
2023/06/18 08:20:51;;;;;;;;;;;21.60;61.70;;;;;;4990729;28;19914;-69
2023/06/18 08:23:16;;;;;;;;;;;21.60;61.10;;;;;;4986340;28;19974;-69
2023/06/18 08:25:42;;;;;;;;;;;21.60;61.20;;;;;;4986541;28;19914;-69
2023/06/18 08:28:07;;;;;;;;;;;21.70;61.80;;;;;;4986746;28;19921;-69
2023/06/18 08:30:32;;;;;;;;;;;21.70;61.30;;;;;;4986927;28;20329;-68
2023/06/18 08:32:58;;;;;;;;;;;21.80;60.90;;;;;;4986817;28;19914;-68
2023/06/18 08:35:24;;;;;;;;;;;21.90;60.90;;;;;;4986272;28;19914;-69
2023/06/18 08:37:49;;;;;;;;;;;21.90;60.90;;;;;;4986739;28;19914;-69
2023/06/18 08:40:15;;;;;;;;;;;22.00;60.90;;;;;;4986811;28;19936;-68
2023/06/18 08:42:41;;;;;;;;;;;22.10;60.50;;;;;;4986507;28;19917;-67
2023/06/18 08:45:06;;;;;;;;;;;22.10;60.50;;;;;;4985254;28;19974;-67
2023/06/18 08:47:33;;;;;;;;;;;22.20;60.60;;;;;;4986237;28;20398;-67
2023/06/18 08:50:01;;;;;;;;;;;22.20;60.40;;;;;;4986787;28;19921;-67
2023/06/18 08:52:30;;;;;;;;;;;22.30;60.50;;;;;;4989947;28;20878;-67
2023/06/18 08:54:59;;;;;;;;;;;22.30;60.20;;;;;;4986676;28;20016;-67
2023/06/18 08:57:25;;;;;;;;;;;22.40;60.20;;;;;;4985994;28;19914;-67
2023/06/18 08:59:50;;;;;;;;;;;22.50;60.10;;;;;;4986380;28;20355;-67
2023/06/18 09:02:20;;;;;;;;;;;22.50;60.00;;;;;;4986280;28;20029;-67
2023/06/18 09:04:45;;;;;;;;;;;22.60;59.90;;;;;;4986293;28;19913;-67
2023/06/18 09:07:11;;;;;;;;;;;22.60;60.00;;;;;;4997539;28;20516;-67
2023/06/18 09:09:37;;;;;;;;;;;22.70;60.00;;;;;;4987207;28;20418;-67
2023/06/18 09:12:02;;;;;;;;;;;22.70;59.90;;;;;;4986099;28;19920;-67
2023/06/18 09:14:28;;;;;;;;;;;22.80;59.60;;;;;;4986234;28;19910;-67
2023/06/18 09:16:54;;;;;;;;;;;22.90;59.60;;;;;;4985798;28;19910;-67
2023/06/18 09:19:20;;;;;;;;;;;22.90;59.50;;;;;;4984884;28;19979;-67
2023/06/18 09:21:46;;;;;;;;;;;23.00;58.90;;;;;;4985211;28;19914;-67
2023/06/18 09:24:15;;;;;;;;;;;23.10;59.20;;;;;;4985161;28;19922;-67
2023/06/18 09:26:41;;;;;;;;;;;23.10;59.10;;;;;;4985690;28;19914;-67
2023/06/18 09:29:07;;;;;;;;;;;23.20;58.90;;;;;;4985922;28;20623;-67
2023/06/18 09:31:38;;;;;;;;;;;23.20;58.60;;;;;;4984532;28;20325;-67
2023/06/18 09:34:16;;;;;;;;;;;23.30;58.60;;;;;;4985937;28;20284;-67
2023/06/18 09:36:43;;;;;;;;;;;23.40;58.60;;;;;;4984245;28;19913;-67
2023/06/18 09:39:18;;;;;;;;;;;23.40;58.60;;;;;;4986067;28;19910;-67
2023/06/18 09:41:45;;;;;;;;;;;23.50;58.60;;;;;;4985857;28;19910;-67
2023/06/18 09:44:12;;;;;;;;;;;23.60;58.50;;;;;;4984502;28;19913;-67
2023/06/18 09:46:37;;;;;;;;;;;23.60;58.60;;;;;;4984326;28;20014;-67
2023/06/18 09:49:03;;;;;;;;;;;23.70;58.30;;;;;;4985680;28;19953;-67
2023/06/18 09:51:28;;;;;;;;;;;23.80;59.00;;;;;;4994689;28;20281;-67
2023/06/18 09:53:55;;;;;;;;;;;23.80;58.30;;;;;;5003995;28;19914;-67
2023/06/18 09:56:20;;;;;;;;;;;23.80;58.20;;;;;;5004845;28;19918;-67
2023/06/18 09:58:47;;;;;;;;;;;23.90;58.20;;;;;;5005178;28;19964;-67
2023/06/18 10:01:13;;;;;;;;;;;24.00;58.20;;;;;;5005177;28;19971;-67
2023/06/18 10:03:38;;;;;;;;;;;24.10;58.10;;;;;;5005285;28;19941;-67
2023/06/18 10:06:24;;;;;;;;;;;24.10;58.00;;;;;;4988254;28;19997;-67
2023/06/18 10:08:51;;;;;;;;;;;24.20;57.90;;;;;;4985094;28;20378;-67
2023/06/18 10:11:17;;;;;;;;;;;24.30;57.70;;;;;;4985387;28;19914;-67
2023/06/18 10:13:50;;;;;;;;;;;24.30;57.70;;;;;;4984226;28;20012;-68
2023/06/18 10:16:17;;;;;;;;;;;24.40;57.80;;;;;;4985069;28;19921;-67
2023/06/18 10:19:02;;;;;;;;;;;24.50;57.90;;;;;;4985408;28;19945;-67
2023/06/18 10:21:28;;;;;;;;;;;24.50;57.30;;;;;;4979595;28;20346;-67
2023/06/18 10:24:02;;;;;;;;;;;24.70;57.40;;;;;;4981906;28;19949;-67
2023/06/18 10:26:28;;;;;;;;;;;24.70;57.10;;;;;;4985055;28;19914;-67
2023/06/18 10:28:54;;;;;;;;;;;24.80;57.30;;;;;;4985334;28;19944;-67
2023/06/18 10:31:20;;;;;;;;;;;24.80;56.90;;;;;;4985435;28;19921;-67
2023/06/18 10:33:46;;;;;;;;;;;24.90;56.90;;;;;;4985232;28;19920;-68
2023/06/18 10:36:12;;;;;;;;;;;25.00;57.40;;;;;;4984689;28;19921;-67
2023/06/18 10:38:38;;;;;;;;;;;25.10;56.90;;;;;;4985125;28;19910;-67
2023/06/18 10:41:11;;;;;;;;;;;25.20;56.50;;;;;;4984855;28;19910;-67
2023/06/18 10:43:40;;;;;;;;;;;25.30;57.00;;;;;;4985204;28;19920;-67
2023/06/18 10:46:12;;;;;;;;;;;25.40;56.60;;;;;;4984735;28;19926;-67
2023/06/18 10:48:38;;;;;;;;;;;25.50;57.30;;;;;;4985047;28;19925;-67
2023/06/18 10:51:19;;;;;;;;;;;25.50;57.00;;;;;;4988330;28;20290;-67
2023/06/18 10:53:45;;;;;;;;;;;25.60;57.00;;;;;;4984858;28;19913;-68
2023/06/18 10:56:14;;;;;;;;;;;25.60;56.90;;;;;;4984492;28;19914;-67
2023/06/18 10:58:40;;;;;;;;;;;25.80;57.00;;;;;;4988062;28;19917;-68
2023/06/18 11:01:05;;;;;;;;;;;25.90;56.80;;;;;;4988357;28;19914;-67
2023/06/18 11:03:35;;;;;;;;;;;26.00;56.80;;;;;;4988086;28;19961;-68
2023/06/18 11:06:01;;;;;;;;;;;26.20;56.70;;;;;;4987822;28;20382;-68
2023/06/18 11:08:31;;;;;;;;;;;26.30;56.30;;;;;;4988270;28;19971;-68
2023/06/18 11:11:03;;;;;;;;;;;26.30;57.30;;;;;;4988976;28;19952;-67
2023/06/18 11:13:36;;;;;;;;;;;26.50;56.70;;;;;;5003542;28;19910;-67
2023/06/18 11:16:02;;;;;;;;;;;26.50;56.40;;;;;;4988672;28;19933;-68
2023/06/18 11:18:29;;;;;;;;;;;26.60;56.50;;;;;;4987297;28;19918;-67
2023/06/18 11:20:55;;;;;;;;;;;26.70;56.20;;;;;;4992206;28;19917;-68
2023/06/18 11:23:21;;;;;;;;;;;26.70;56.20;;;;;;4986442;28;20502;-67
2023/06/18 11:25:47;;;;;;;;;;;26.70;56.40;;;;;;4988267;28;19928;-67
2023/06/18 11:28:13;;;;;;;;;;;26.80;56.40;;;;;;4988345;28;20012;-68
2023/06/18 11:30:41;;;;;;;;;;;26.80;56.30;;;;;;4988330;28;19979;-67
2023/06/18 11:33:06;;;;;;;;;;;26.90;56.60;;;;;;4988497;28;19913;-67
2023/06/18 11:35:32;;;;;;;;;;;27.00;56.40;;;;;;4988307;28;20294;-67
2023/06/18 11:37:57;;;;;;;;;;;27.10;53.30;;;;;;4988227;28;19914;-66
2023/06/18 11:40:23;;;;;;;;;;;27.30;53.20;;;;;;4988298;28;19914;-67
2023/06/18 11:42:50;;;;;;;;;;;27.40;52.90;;;;;;4988182;28;19938;-68
2023/06/18 11:45:16;;;;;;;;;;;27.40;51.90;;;;;;4988327;28;19967;-67
2023/06/18 11:47:49;;;;;;;;;;;27.50;52.80;;;;;;4987996;28;19917;-66
2023/06/18 11:50:19;;;;;;;;;;;27.60;52.60;;;;;;4988953;28;19917;-66
2023/06/18 11:52:44;;;;;;;;;;;27.60;52.60;;;;;;4987068;28;19956;-66
2023/06/18 11:55:10;;;;;;;;;;;27.60;53.20;;;;;;4988118;28;19910;-67
2023/06/18 11:57:35;;;;;;;;;;;27.70;53.30;;;;;;5055251;28;19943;-66
2023/06/18 12:00:06;;;;;;;;;;;27.70;51.70;;;;;;5090728;28;19912;-66
2023/06/18 12:02:31;;;;;;;;;;;27.70;52.10;;;;;;5090472;28;19942;-66
2023/06/18 12:05:02;;;;;;;;;;;27.70;52.50;;;;;;5054026;28;20374;-65
2023/06/18 12:07:28;;;;;;;;;;;27.60;52.70;;;;;;4987364;28;19921;-66
2023/06/18 12:09:55;;;;;;;;;;;27.70;52.70;;;;;;4987066;28;19914;-66
2023/06/18 12:12:28;;;;;;;;;;;27.70;52.20;;;;;;4995267;28;19914;-67
2023/06/18 12:14:58;;;;;;;;;;;27.70;52.30;;;;;;4968435;28;19910;-69
2023/06/18 12:17:35;;;;;;;;;;;27.70;53.00;;;;;;4984212;28;20559;-69
2023/06/18 12:20:13;;;;;;;;;;;27.60;53.00;;;;;;4988060;28;19917;-67
2023/06/18 12:22:39;;;;;;;;;;;27.60;53.50;;;;;;4987081;28;19925;-67
2023/06/18 12:25:06;;;;;;;;;;;27.70;53.70;;;;;;4985969;28;20310;-68
2023/06/18 12:27:31;;;;;;;;;;;27.60;53.80;;;;;;4985860;28;19914;-66
2023/06/18 12:30:00;;;;;;;;;;;27.60;53.90;;;;;;4987596;28;19914;-67
2023/06/18 12:32:26;;;;;;;;;;;27.60;53.70;;;;;;4987739;28;19914;-68
2023/06/18 12:34:51;;;;;;;;;;;27.70;53.40;;;;;;4985999;28;19925;-68
2023/06/18 12:37:17;;;;;;;;;;;27.80;53.50;;;;;;4986859;28;19918;-67
2023/06/18 12:40:01;;;;;;;;;;;28.00;53.40;;;;;;4987057;28;19918;-66
2023/06/18 12:42:27;;;;;;;;;;;28.10;51.90;;;;;;4987048;28;19918;-65
2023/06/18 12:44:52;;;;;;;;;;;28.30;51.20;;;;;;4987019;28;19937;-71
2023/06/18 12:47:18;;;;;;;;;;;28.40;50.40;;;;;;4986536;28;20284;-71
2023/06/18 12:49:44;;;;;;;;;;;28.70;49.80;;;;;;4987449;28;19966;-71
2023/06/18 12:52:14;;;;;;;;;;;28.90;48.60;;;;;;4988810;28;19910;-71
2023/06/18 12:54:39;;;;;;;;;;;29.10;47.90;;;;;;4985357;28;20536;-71
2023/06/18 12:57:05;;;;;;;;;;;29.20;47.90;;;;;;4983967;28;19917;-70
2023/06/18 12:59:31;;;;;;;;;;;29.10;47.50;;;;;;4986338;28;19917;-70
2023/06/18 13:01:56;;;;;;;;;;;29.10;46.90;;;;;;4986345;28;20534;-70
2023/06/18 13:04:22;;;;;;;;;;;29.10;46.40;;;;;;4986316;28;19935;-70
2023/06/18 13:06:49;;;;;;;;;;;29.10;46.00;;;;;;4986006;28;20377;-70
2023/06/18 13:09:15;;;;;;;;;;;29.00;45.70;;;;;;4986030;28;19918;-71
2023/06/18 13:11:41;;;;;;;;;;;28.90;45.50;;;;;;4986195;28;19914;-71
2023/06/18 13:14:06;;;;;;;;;;;28.90;45.50;;;;;;5000414;28;20587;-70
2023/06/18 13:16:33;;;;;;;;;;;28.90;45.80;;;;;;4985816;28;20389;-71
2023/06/18 13:18:58;;;;;;;;;;;28.90;46.40;;;;;;4986010;28;19914;-70
2023/06/18 13:21:24;;;;;;;;;;;28.90;46.90;;;;;;4988052;28;19937;-71
2023/06/18 13:23:49;;;;;;;;;;;28.80;47.30;;;;;;4982029;28;19967;-70
2023/06/18 13:26:18;;;;;;;;;;;28.80;47.50;;;;;;4985600;28;19914;-70
2023/06/18 13:28:43;;;;;;;;;;;28.70;46.30;;;;;;4984580;28;19917;-70
2023/06/18 13:31:09;;;;;;;;;;;28.70;46.10;;;;;;4985410;28;19921;-70
2023/06/18 13:33:34;;;;;;;;;;;28.60;46.80;;;;;;4985820;28;19917;-71
2023/06/18 13:36:00;;;;;;;;;;;28.60;47.10;;;;;;4985289;28;20361;-70
2023/06/18 13:38:26;;;;;;;;;;;28.60;46.90;;;;;;4985561;28;20013;-70
2023/06/18 13:40:51;;;;;;;;;;;28.50;47.50;;;;;;4986118;28;20395;-70
2023/06/18 13:43:18;;;;;;;;;;;28.50;48.20;;;;;;4986093;28;20022;-70
2023/06/18 13:45:44;;;;;;;;;;;28.50;48.90;;;;;;4985976;28;20009;-70
2023/06/18 13:48:09;;;;;;;;;;;28.40;49.50;;;;;;5000037;28;20004;-70
2023/06/18 13:50:35;;;;;;;;;;;28.40;49.80;;;;;;5005661;28;19914;-70
2023/06/18 13:53:01;;;;;;;;;;;28.40;50.40;;;;;;4986229;28;20686;-71
2023/06/18 13:55:28;;;;;;;;;;;28.30;50.30;;;;;;4985854;28;19918;-70
2023/06/18 13:57:53;;;;;;;;;;;28.40;50.30;;;;;;5034989;28;19936;-70
2023/06/18 14:00:19;;;;;;;;;;;28.30;49.50;;;;;;5088454;28;19912;-70
2023/06/18 14:02:44;;;;;;;;;;;28.40;50.10;;;;;;5087806;28;19953;-70
2023/06/18 14:05:10;;;;;;;;;;;28.30;50.60;;;;;;5040247;28;19914;-70
2023/06/18 14:07:36;;;;;;;;;;;28.30;50.80;;;;;;4984930;28;19952;-70
2023/06/18 14:10:02;;;;;;;;;;;28.30;50.90;;;;;;4985392;28;19967;-70
2023/06/18 14:12:27;;;;;;;;;;;28.20;51.50;;;;;;4985091;28;19917;-70